• Join FlightAware (Why Join?)
  • Login
  • US Flag 
11:15PM EDT


 

Airport Tracker/Info


-or-


 

Live Flight TrackerFlight Track Log ✈ BJS444 ✈ 19-Apr-2013 ✈ KTEB - KMIA

Flight Track Log - Related Links

Times and Time Zones

All times are in EDT time to prevent confusion due to time zone crossing. See the BJS444 flight status page for this flight to view local times or setup timezone preferences in your user account.

Time Position Orientation Groundspeed Altitude Reporting Facility
EDT Latitude Longitude Course Direction KTS MPH feet Rate Location/Type
10:59PM 40.8167 -74.1333 252° West 176 203 1,500  Level New York TRACON
11:00PM 40.8167 -74.2000 270° West 163 188 2,000 1,560 Climbing New York TRACON
11:01PM 40.8167 -74.2667 270° West 192 221 4,500 2,700 Climbing New York TRACON
11:02PM 40.8167 -74.3333 270° West 205 236 7,500 2,700 Climbing New York TRACON
11:03PM 40.8500 -74.4167 298° West 280 322 9,900 2,520 Climbing New York TRACON
11:03PM 40.8833 -74.5000 298° West 300 345 12,300 2,460 Climbing New York TRACON
11:04PM 40.6088 -74.8146 252° West  Level FlightAware Approximate
11:04PM 40.9056 -74.5461 303° West 302 348 13,100  Level New York Center
11:05PM 40.9131 -74.6317 277° West 284 327 16,000 1,860 Climbing New York Center
11:06PM 40.8589 -74.6944 221° Southwest 263 303 17,000 480 Climbing New York Center
11:07PM 40.7917 -74.7700 220° Southwest 301 346 17,000  Level New York Center
11:08PM 40.7203 -74.8508 221° Southwest 325 374 17,000 480 Level New York Center
11:09PM 40.6575 -74.9208 220° Southwest 339 390 18,000 1,680 Climbing New York Center
11:10PM 40.5881 -74.9958 219° Southwest 339 390 20,300 2,280 Climbing New York Center
11:11PM 40.5267 -75.0767 225° Southwest 328 377 22,700 2,220 Climbing New York Center
11:12PM 40.4714 -75.1689 232° Southwest 323 372 24,900 2,100 Climbing New York Center
11:13PM 40.4158 -75.2581 231° Southwest 323 372 26,900 1,980 Climbing New York Center
11:14PM 40.3581 -75.3494 230° Southwest 328 377 28,900 2,040 Climbing New York Center
11:15PM 40.2914 -75.4539 230° Southwest 341 392 31,100 1,800 Climbing New York Center
11:16PM 40.2336 -75.5481 231° Southwest 341 392 32,600 1,440 Climbing New York Center
11:17PM 40.1814 -75.6503 236° Southwest 341 392 34,100 1,680 Climbing New York Center
11:18PM 40.1292 -75.7525 236° Southwest 341 392 36,000 1,980 Climbing New York Center
11:19PM 40.0792 -75.8522 237° Southwest 341 392 38,000 1,500 Climbing New York Center
11:20PM 40.0292 -75.9489 236° Southwest 330 380 39,000 960 Climbing New York Center
11:21PM 39.9811 -76.0428 236° Southwest 325 374 40,000 960 Climbing New York Center
11:22PM 39.9156 -76.1108 219° Southwest 315 362 41,000 900 Climbing New York Center
11:23PM 39.8361 -76.1589 205° Southwest 315 362 41,900 840 Climbing New York Center
11:24PM 39.7547 -76.2039 203° Southwest 310 357 42,700 540 Climbing New York Center
11:25PM 39.6797 -76.2522 206° Southwest 316 364 43,000 120 Climbing New York Center
11:26PM 39.5739 -76.3183 206° Southwest 313 360 43,000  Level Washington Center
11:27PM 39.4944 -76.3714 207° Southwest 319 367 43,000  Level Washington Center
11:28PM 39.4250 -76.4486 221° Southwest 324 373 43,000  Level Washington Center
11:29PM 39.3661 -76.5339 228° Southwest 330 380 43,000  Level Washington Center
11:30PM 39.2925 -76.6294 225° Southwest 342 394 43,000  Level Washington Center
11:31PM 39.2414 -76.7306 237° Southwest 353 406 43,000  Level Washington Center
11:32PM 39.1800 -76.8286 231° Southwest 359 413 43,000  Level Washington Center
11:33PM 39.1186 -76.9239 230° Southwest 359 413 43,000  Level Washington Center
11:34PM 39.0550 -77.0244 231° Southwest 359 413 43,000  Level Washington Center
11:35PM 38.9808 -77.1083 221° Southwest 359 413 43,000  Level Washington Center
11:36PM 38.9069 -77.1894 221° Southwest 353 406 43,000  Level Washington Center
11:37PM 38.8331 -77.2678 220° Southwest 353 406 43,000  Level Washington Center
11:38PM 38.7589 -77.3486 220° Southwest 353 406 43,000  Level Washington Center
11:39PM 38.6825 -77.4294 220° Southwest 358 412 43,000  Level Washington Center
11:40PM 38.6103 -77.5100 221° Southwest 358 412 43,000  Level Washington Center
11:41PM 38.5361 -77.5931 221° Southwest 358 412 43,000  Level Washington Center
11:42PM 38.4597 -77.6758 220° Southwest 358 412 43,000  Level Washington Center
11:43PM 38.3872 -77.7558 221° Southwest 358 412 43,000  Level Washington Center
11:44PM 38.3128 -77.8356 220° Southwest 358 412 43,000  Level Washington Center
11:45PM 38.2364 -77.9153 219° Southwest 358 412 43,000  Level Washington Center
11:46PM 38.1617 -77.9975 221° Southwest 358 412 43,000  Level Washington Center
11:47PM 38.0869 -78.0769 220° Southwest 358 412 43,000  Level Washington Center
11:48PM 38.0039 -78.1611 219° Southwest 358 412 43,000  Level Washington Center
11:49PM 37.9378 -78.2272 218° Southwest 352 405 43,000  Level Washington Center
11:50PM 37.8611 -78.3008 217° Southwest 352 405 43,000  Level Washington Center
11:51PM 37.7800 -78.3794 217° Southwest 357 411 43,000  Level Washington Center
11:52PM 37.7014 -78.4500 215° Southwest 357 411 43,000  Level Washington Center
11:53PM 37.6136 -78.5358 218° Southwest 357 411 43,000  Level Washington Center
11:54PM 37.5367 -78.6089 217° Southwest 357 411 43,000  Level Washington Center
11:55PM 37.4578 -78.6817 216° Southwest 352 405 43,000  Level Washington Center
11:56PM 37.3786 -78.7542 216° Southwest 352 405 43,000  Level Washington Center
11:57PM 37.2972 -78.8292 216° Southwest 352 405 43,000  Level Washington Center
11:58PM 37.2225 -78.8964 216° Southwest 358 412 43,000  Level Washington Center
11:59PM 37.1453 -78.9714 218° Southwest 358 412 43,000  Level Washington Center
12:00AM 37.0639 -79.0458 216° Southwest 358 412 43,000  Level Washington Center
12:01AM 36.9844 -79.1203 217° Southwest 358 412 43,000  Level Washington Center
12:02AM 36.9053 -79.1944 217° Southwest 363 418 43,000  Level Washington Center
12:03AM 36.8131 -79.2758 215° Southwest 368 423 43,000  Level Washington Center
12:04AM 36.7333 -79.3525 218° Southwest 368 423 43,000  Level Washington Center
12:05AM 36.6517 -79.4261 216° Southwest 373 429 43,000  Level Washington Center
12:06AM 36.5681 -79.5022 216° Southwest 373 429 43,000  Level Washington Center
12:07AM 36.5011 -79.5661 218° Southwest 373 429 43,000  Level Washington Center
12:08AM 36.4128 -79.6492 217° Southwest 360 414 43,100  Climbing Washington Center
12:09AM 36.3772 -79.6808 216° Southwest 361 415 43,000 -120 Descending Atlanta Center
12:10AM 36.3103 -79.7333 212° Southwest 375 432 43,000  Level Atlanta Center
12:11AM 36.2192 -79.8156 216° Southwest 375 432 43,000  Level Atlanta Center
12:12AM 36.1361 -79.8892 216° Southwest 375 432 43,000  Level Atlanta Center
12:13AM 36.0553 -79.9628 216° Southwest 369 425 43,000  Level Atlanta Center
12:14AM 35.9611 -80.0186 206° Southwest 374 430 43,000  Level Atlanta Center
12:15AM 35.8522 -80.0650 199° South 372 428 43,000  Level Atlanta Center
12:16AM 35.7578 -80.1158 204° Southwest 372 428 43,000  Level Atlanta Center
12:17AM 35.6656 -80.1689 205° Southwest 372 428 43,000  Level Atlanta Center
12:18AM 35.5689 -80.2142 201° Southwest 372 428 43,000  Level Atlanta Center
12:19AM 35.4703 -80.2647 203° Southwest 377 434 43,000  Level Atlanta Center
12:20AM 35.3819 -80.3094 202° Southwest 377 434 43,000  Level Atlanta Center
12:21AM 35.2856 -80.3572 202° Southwest 377 434 43,000  Level Atlanta Center
12:22AM 35.1908 -80.4044 202° Southwest 377 434 43,000  Level Atlanta Center
12:23AM 35.0922 -80.4544 203° Southwest 382 440 43,000  Level Atlanta Center
12:24AM 34.9853 -80.5072 202° Southwest 382 440 43,000  Level Atlanta Center
12:25AM 34.8231 -80.5861 202° Southwest 375 432 43,000  Level Jacksonville Center
12:26AM 34.7383 -80.6314 204° Southwest 370 426 43,000  Level Jacksonville Center
12:27AM 34.6411 -80.6769 201° Southwest 375 432 43,000  Level Jacksonville Center
12:28AM 34.5272 -80.7328 202° Southwest 401 461 43,000  Level Jacksonville Center
12:29AM 34.4192 -80.7556 190° South 389 448 43,000  Level Jacksonville Center
12:30AM 34.3214 -80.7706 187° South 399 459 43,000  Level Jacksonville Center
12:31AM 34.2150 -80.7781 183° South 399 459 43,000  Level Jacksonville Center
12:32AM 34.1069 -80.7908 186° South 399 459 43,000  Level Jacksonville Center
12:33AM 33.9944 -80.8036 185° South 399 459 43,000  Level Jacksonville Center
12:34AM 33.8839 -80.8161 185° South 404 465 43,000  Level Jacksonville Center
12:35AM 33.7736 -80.8264 184° South 404 465 43,000  Level Jacksonville Center
12:36AM 33.6611 -80.8389 185° South 404 465 43,000  Level Jacksonville Center
12:37AM 33.5508 -80.8514 185° South 404 465 43,000  Level Jacksonville Center
12:38AM 33.4425 -80.8639 185° South 404 465 43,000  Level Jacksonville Center
12:39AM 33.3300 -80.8764 185° South 404 465 43,000  Level Jacksonville Center
12:40AM 33.2175 -80.8889 185° South 404 465 43,000  Level Jacksonville Center
12:41AM 33.1047 -80.8989 184° South 404 465 43,000  Level Jacksonville Center
12:42AM 32.9944 -80.9136 186° South 404 465 43,000  Level Jacksonville Center
12:43AM 32.8819 -80.9211 183° South 404 465 43,000  Level Jacksonville Center
12:44AM 32.7694 -80.9333 185° South 404 465 43,000  Level Jacksonville Center
12:45AM 32.6589 -80.9458 185° South 404 465 43,000  Level Jacksonville Center
12:46AM 32.5442 -80.9581 185° South 404 465 43,000  Level Jacksonville Center
12:47AM 32.4336 -80.9678 184° South 404 465 43,000  Level Jacksonville Center
12:48AM 32.3169 -80.9800 185° South 389 448 43,000  Level Jacksonville Center
12:49AM 32.2044 -80.9897 184° South 399 459 43,000  Level Jacksonville Center
12:50AM 32.0981 -80.9994 184° South 414 476 43,000  Level Jacksonville Center
12:51AM 31.9708 -81.0117 185° South 426 490 43,000  Level Jacksonville Center
12:52AM 31.8564 -81.0264 186° South 414 476 43,000  Level Jacksonville Center
12:53AM 31.7542 -81.0381 186° South 414 476 43,000  Level Jacksonville Center
12:54AM 31.6417 -81.0503 185° South 414 476 43,000  Level Jacksonville Center
12:55AM 31.5125 -81.0625 185° South 424 488 43,000  Level Jacksonville Center
12:56AM 31.3956 -81.0769 186° South 424 488 43,000  Level Jacksonville Center
12:57AM 31.2811 -81.0914 186° South 424 488 43,000  Level Jacksonville Center
12:58AM 31.1622 -81.1033 185° South 424 488 43,000  Level Jacksonville Center
12:59AM 31.0453 -81.1128 184° South 424 488 43,000  Level Jacksonville Center
01:00AM 30.9308 -81.1247 185° South 418 481 43,000  Level Jacksonville Center
01:01AM 30.8181 -81.1364 185° South 418 481 43,000  Level Jacksonville Center
01:02AM 30.6972 -81.1483 185° South 424 488 43,000  Level Jacksonville Center
01:03AM 30.5783 -81.1553 183° South 424 488 43,000  Level Jacksonville Center
01:04AM 30.4614 -81.1478 177° South 419 482 43,000  Level Jacksonville Center
01:05AM 30.3422 -81.1428 178° South 425 489 43,000  Level Jacksonville Center
01:06AM 30.2211 -81.1400 179° South 425 489 43,000  Level Jacksonville Center
01:07AM 30.1042 -81.1375 179° South 425 489 43,000  Level Jacksonville Center
01:08AM 29.9831 -81.1347 179° South 425 489 43,000  Level Jacksonville Center
01:09AM 29.8619 -81.1300 178° South 430 495 43,000  Level Jacksonville Center
01:10AM 29.7450 -81.1297 180° South 430 495 43,000  Level Jacksonville Center
01:11AM 29.6258 -81.1222 177° South 430 495 43,000  Level Jacksonville Center
01:12AM 29.5069 -81.1219 180° South 430 495 43,000  Level Jacksonville Center
01:13AM 29.4025 -81.1167 177° South 421 484 43,000  Level Jacksonville Center
01:15AM 29.1922 -81.0733 170° South 453 521 43,000  Level Miami Center
01:16AM 29.0747 -81.0236 160° South 453 521 43,000  Level Miami Center
01:17AM 28.9572 -80.9789 162° South 453 521 43,000  Level Miami Center
01:18AM 28.8314 -80.9267 160° South 447 514 43,000  Level Miami Center
01:19AM 28.7139 -80.8800 161° South 448 516 43,000  Level Miami Center
01:20AM 28.6169 -80.8386 159° South 448 516 43,000  Level Miami Center
01:21AM 28.4764 -80.7839 161° South 448 516 43,000  Level Miami Center
01:22AM 28.3711 -80.7425 161° South 453 521 43,000  Level Miami Center
01:23AM 28.2514 -80.6961 161° South 453 521 43,000  Level Miami Center
01:24AM 28.1317 -80.6450 159° South 453 521 43,000  Level Miami Center
01:25AM 28.0119 -80.6033 163° South 463 533 43,000 -600 Level Miami Center
01:26AM 27.8917 -80.5642 164° South 456 525 41,900 -1,800 Descending Miami Center
01:27AM 27.7531 -80.5172 163° South 466 536 39,400 -2,340 Descending Miami Center
01:28AM 27.6289 -80.4733 163° South 466 536 37,200 -2,340 Descending Miami Center
01:29AM 27.5069 -80.4228 160° South 466 536 34,800 -2,700 Descending Miami Center
01:30AM 27.3769 -80.3697 160° South 482 555 31,900 -3,000 Descending Miami Center
01:31AM 27.2464 -80.3189 161° South 488 562 29,000 -2,880 Descending Miami Center
01:32AM 27.1203 -80.2664 160° South 494 568 26,200 -2,760 Descending Miami Center
01:33AM 26.9964 -80.2161 160° South 494 568 23,500 -2,820 Descending Miami Center
01:34AM 26.8719 -80.1681 161° South 478 550 20,600 -2,700 Descending Miami Center
01:35AM 26.7750 -80.1258 159° South 431 496 18,100 -2,280 Descending Miami Center
01:36AM 26.6567 -80.0831 162° South 417 480 16,100 -1,260 Descending Miami Center
01:37AM 26.5881 -80.0767 175° South 368 423 16,000 -120 Descending Miami Center
01:37AM 26.5547 -80.0664 165° South 390 449 16,000  Level Miami Center
01:37AM 26.5047 -80.0603 174° South 363 418 16,000  Level Miami Center
01:38AM 26.4550 -80.0475 167° South 369 425 16,000  Level Miami Center
01:38AM 26.4069 -80.0439 176° South 371 427 16,000 -900 Level Miami Center
01:39AM 26.3525 -80.0492 185° South 363 418 15,100 -1,860 Descending Miami Center
01:39AM 26.3103 -80.0736 207° Southwest 336 387 14,100 -1,980 Descending Miami Center
01:40AM 26.2742 -80.1006 214° Southwest 338 389 13,100 -2,340 Descending Miami Center
01:40AM 26.2336 -80.1342 217° Southwest 343 395 11,800 -2,460 Descending Miami Center
01:41AM 26.1975 -80.1608 214° Southwest 338 389 10,600 -2,520 Descending Miami Center
01:41AM 26.1553 -80.1922 214° Southwest 335 386 9,300 -2,040 Descending Miami Center
01:42AM 26.1211 -80.2189 215° Southwest 343 395 8,600 -1,320 Descending Miami Center
01:42AM 26.0869 -80.2458 215° Southwest 273 314 8,000 -660 Descending Miami Center
01:43AM 26.0614 -80.2703 221° Southwest 313 360 8,000 -420 Level Miami Center
01:44AM 26.0333 -80.3067 229° Southwest 275 316 7,600 -1,200 Descending Miami Center
01:44AM 26.0078 -80.3289 218° Southwest 287 330 6,800 -1,920 Descending Miami Center
01:44AM 25.9697 -80.3533 210° Southwest 268 308 5,800 -1,920 Descending Miami Center
01:45AM 25.9442 -80.3711 212° Southwest 282 325 5,000 -1,620 Descending Miami Center
01:46AM 25.9103 -80.3931 210° Southwest 248 285 4,100 -1,080 Descending Miami Center
01:46AM 25.8847 -80.4108 212° Southwest 269 310 3,900 -1,200 Descending Miami Center
01:47AM 25.8508 -80.4353 213° Southwest 239 275 2,900 -1,620 Descending Miami Center
01:48AM 25.7900 -80.4403 184° South 219 252 1,500 -780 Descending Miami Center
01:49AM 25.7975 -80.3897 81° East 156 180 1,400 -360 Descending Miami Center
01:50AM 25.7964 -80.3461 92° East 136 157 800 -600 Descending Miami Center
01:52AM 25.7954 -80.2901 103° East  Level Estimated
01:59AM 25.7954 -80.2901 103° East  Level Estimated